sensor_id;sensor_type;location;lat;lon;timestamp;temperature;humidity
34099;DHT22;20374;49.474;10.944;2022-08-21T00:00:33;16.90;99.90
34099;DHT22;20374;49.474;10.944;2022-08-21T00:03:02;16.80;99.90
34099;DHT22;20374;49.474;10.944;2022-08-21T00:05:31;16.80;99.90
34099;DHT22;20374;49.474;10.944;2022-08-21T00:07:57;16.80;99.90
34099;DHT22;20374;49.474;10.944;2022-08-21T00:10:24;16.70;99.90
34099;DHT22;20374;49.474;10.944;2022-08-21T00:12:50;16.70;99.90
34099;DHT22;20374;49.474;10.944;2022-08-21T00:15:20;16.70;99.90
34099;DHT22;20374;49.474;10.944;2022-08-21T00:17:47;16.70;99.90
34099;DHT22;20374;49.474;10.944;2022-08-21T00:20:15;16.80;99.90
34099;DHT22;20374;49.474;10.944;2022-08-21T00:22:41;16.70;99.90
34099;DHT22;20374;49.474;10.944;2022-08-21T00:25:09;16.70;99.90
34099;DHT22;20374;49.474;10.944;2022-08-21T00:27:35;16.60;99.90
34099;DHT22;20374;49.474;10.944;2022-08-21T00:30:03;16.70;99.90
34099;DHT22;20374;49.474;10.944;2022-08-21T00:32:30;16.70;99.90
34099;DHT22;20374;49.474;10.944;2022-08-21T00:34:56;16.70;99.90
34099;DHT22;20374;49.474;10.944;2022-08-21T00:37:22;16.70;99.90
34099;DHT22;20374;49.474;10.944;2022-08-21T00:39:48;16.60;99.90
34099;DHT22;20374;49.474;10.944;2022-08-21T00:42:14;16.50;99.90
34099;DHT22;20374;49.474;10.944;2022-08-21T00:44:44;16.40;99.90
34099;DHT22;20374;49.474;10.944;2022-08-21T00:47:11;16.40;99.90
34099;DHT22;20374;49.474;10.944;2022-08-21T00:49:38;16.40;99.90
34099;DHT22;20374;49.474;10.944;2022-08-21T00:52:07;16.40;99.90
34099;DHT22;20374;49.474;10.944;2022-08-21T00:54:34;16.40;99.90
34099;DHT22;20374;49.474;10.944;2022-08-21T00:57:07;16.40;99.90
34099;DHT22;20374;49.474;10.944;2022-08-21T00:59:37;16.40;99.90
34099;DHT22;20374;49.474;10.944;2022-08-21T01:02:06;16.50;99.90
34099;DHT22;20374;49.474;10.944;2022-08-21T01:04:33;16.50;99.90
34099;DHT22;20374;49.474;10.944;2022-08-21T01:06:59;16.50;99.90
34099;DHT22;20374;49.474;10.944;2022-08-21T01:09:26;16.60;99.90
34099;DHT22;20374;49.474;10.944;2022-08-21T01:11:52;16.60;99.90
34099;DHT22;20374;49.474;10.944;2022-08-21T01:14:18;16.50;99.90
34099;DHT22;20374;49.474;10.944;2022-08-21T01:16:48;16.50;99.90
34099;DHT22;20374;49.474;10.944;2022-08-21T01:19:16;16.50;99.90
34099;DHT22;20374;49.474;10.944;2022-08-21T01:21:45;16.60;99.90
34099;DHT22;20374;49.474;10.944;2022-08-21T01:24:13;16.60;99.90
34099;DHT22;20374;49.474;10.944;2022-08-21T01:26:39;16.50;99.90
34099;DHT22;20374;49.474;10.944;2022-08-21T01:29:37;16.60;99.90
34099;DHT22;20374;49.474;10.944;2022-08-21T01:32:10;16.60;99.90
34099;DHT22;20374;49.474;10.944;2022-08-21T01:34:40;16.60;99.90
34099;DHT22;20374;49.474;10.944;2022-08-21T01:37:06;16.50;99.90
34099;DHT22;20374;49.474;10.944;2022-08-21T01:39:34;16.40;99.90
34099;DHT22;20374;49.474;10.944;2022-08-21T01:42:00;16.50;99.90
34099;DHT22;20374;49.474;10.944;2022-08-21T01:44:27;16.50;99.90
34099;DHT22;20374;49.474;10.944;2022-08-21T01:46:55;16.30;99.90
34099;DHT22;20374;49.474;10.944;2022-08-21T01:49:21;16.20;99.90
34099;DHT22;20374;49.474;10.944;2022-08-21T01:51:47;16.20;99.90
34099;DHT22;20374;49.474;10.944;2022-08-21T01:54:13;16.10;99.90
34099;DHT22;20374;49.474;10.944;2022-08-21T01:56:41;16.10;99.90
34099;DHT22;20374;49.474;10.944;2022-08-21T01:59:08;16.10;99.90
34099;DHT22;20374;49.474;10.944;2022-08-21T02:01:35;16.20;99.90
34099;DHT22;20374;49.474;10.944;2022-08-21T02:04:01;16.20;99.90
34099;DHT22;20374;49.474;10.944;2022-08-21T02:06:27;16.20;99.90
34099;DHT22;20374;49.474;10.944;2022-08-21T02:08:53;16.20;99.90
34099;DHT22;20374;49.474;10.944;2022-08-21T02:11:19;16.20;99.90
34099;DHT22;20374;49.474;10.944;2022-08-21T02:13:45;16.30;99.90
34099;DHT22;20374;49.474;10.944;2022-08-21T02:16:12;16.30;99.90
34099;DHT22;20374;49.474;10.944;2022-08-21T02:18:38;16.20;99.90
34099;DHT22;20374;49.474;10.944;2022-08-21T02:21:05;16.20;99.90
34099;DHT22;20374;49.474;10.944;2022-08-21T02:23:32;16.20;99.90
34099;DHT22;20374;49.474;10.944;2022-08-21T02:26:03;16.20;99.90
34099;DHT22;20374;49.474;10.944;2022-08-21T02:28:29;16.20;99.90
34099;DHT22;20374;49.474;10.944;2022-08-21T02:30:56;16.20;99.90
34099;DHT22;20374;49.474;10.944;2022-08-21T02:33:22;16.20;99.90
34099;DHT22;20374;49.474;10.944;2022-08-21T02:35:49;16.20;99.90
34099;DHT22;20374;49.474;10.944;2022-08-21T02:38:22;16.20;99.90
34099;DHT22;20374;49.474;10.944;2022-08-21T02:40:51;16.20;99.90
34099;DHT22;20374;49.474;10.944;2022-08-21T02:43:19;16.20;99.90
34099;DHT22;20374;49.474;10.944;2022-08-21T02:45:45;16.20;99.90
34099;DHT22;20374;49.474;10.944;2022-08-21T02:48:17;16.20;99.90
34099;DHT22;20374;49.474;10.944;2022-08-21T02:50:53;16.20;99.90
34099;DHT22;20374;49.474;10.944;2022-08-21T02:53:20;16.30;99.90
34099;DHT22;20374;49.474;10.944;2022-08-21T02:55:47;16.30;99.90
34099;DHT22;20374;49.474;10.944;2022-08-21T02:58:15;16.30;99.90
34099;DHT22;20374;49.474;10.944;2022-08-21T03:00:43;16.30;99.90
34099;DHT22;20374;49.474;10.944;2022-08-21T03:03:09;16.30;99.90
34099;DHT22;20374;49.474;10.944;2022-08-21T03:05:36;16.30;99.90
34099;DHT22;20374;49.474;10.944;2022-08-21T03:08:09;16.20;99.90
34099;DHT22;20374;49.474;10.944;2022-08-21T03:10:37;16.20;99.90
34099;DHT22;20374;49.474;10.944;2022-08-21T03:13:03;16.20;99.90
34099;DHT22;20374;49.474;10.944;2022-08-21T03:15:30;16.10;99.90
34099;DHT22;20374;49.474;10.944;2022-08-21T03:17:56;16.10;99.90
34099;DHT22;20374;49.474;10.944;2022-08-21T03:20:25;16.10;99.90
34099;DHT22;20374;49.474;10.944;2022-08-21T03:22:52;16.10;99.90
34099;DHT22;20374;49.474;10.944;2022-08-21T03:25:23;16.00;99.90
34099;DHT22;20374;49.474;10.944;2022-08-21T03:27:49;15.90;99.90
34099;DHT22;20374;49.474;10.944;2022-08-21T03:30:16;16.00;99.90
34099;DHT22;20374;49.474;10.944;2022-08-21T03:32:42;15.90;99.90
34099;DHT22;20374;49.474;10.944;2022-08-21T03:35:09;15.80;99.90
34099;DHT22;20374;49.474;10.944;2022-08-21T03:37:35;15.80;99.90
34099;DHT22;20374;49.474;10.944;2022-08-21T03:40:04;15.80;99.90
34099;DHT22;20374;49.474;10.944;2022-08-21T03:42:30;15.80;99.90
34099;DHT22;20374;49.474;10.944;2022-08-21T03:44:56;15.80;99.90
34099;DHT22;20374;49.474;10.944;2022-08-21T03:47:22;15.80;99.90
34099;DHT22;20374;49.474;10.944;2022-08-21T03:49:48;15.80;99.90
34099;DHT22;20374;49.474;10.944;2022-08-21T03:52:14;15.80;99.90
34099;DHT22;20374;49.474;10.944;2022-08-21T03:54:41;15.80;99.90
34099;DHT22;20374;49.474;10.944;2022-08-21T03:57:08;15.80;99.90
34099;DHT22;20374;49.474;10.944;2022-08-21T03:59:35;15.90;99.90
34099;DHT22;20374;49.474;10.944;2022-08-21T04:02:03;15.90;99.90
34099;DHT22;20374;49.474;10.944;2022-08-21T04:04:29;15.90;99.90
34099;DHT22;20374;49.474;10.944;2022-08-21T04:06:56;16.00;99.90
34099;DHT22;20374;49.474;10.944;2022-08-21T04:09:23;16.00;99.90
34099;DHT22;20374;49.474;10.944;2022-08-21T04:11:49;15.90;99.90
34099;DHT22;20374;49.474;10.944;2022-08-21T04:14:16;16.00;99.90
34099;DHT22;20374;49.474;10.944;2022-08-21T04:16:43;16.00;99.90
34099;DHT22;20374;49.474;10.944;2022-08-21T04:19:10;16.00;99.90
34099;DHT22;20374;49.474;10.944;2022-08-21T04:21:37;16.00;99.90
34099;DHT22;20374;49.474;10.944;2022-08-21T04:24:05;15.90;99.90
34099;DHT22;20374;49.474;10.944;2022-08-21T04:26:31;15.80;99.90
34099;DHT22;20374;49.474;10.944;2022-08-21T04:28:57;15.80;99.90
34099;DHT22;20374;49.474;10.944;2022-08-21T04:31:24;15.80;99.90
34099;DHT22;20374;49.474;10.944;2022-08-21T04:33:50;15.80;99.90
34099;DHT22;20374;49.474;10.944;2022-08-21T04:36:17;15.70;99.90
34099;DHT22;20374;49.474;10.944;2022-08-21T04:38:43;15.70;99.90
34099;DHT22;20374;49.474;10.944;2022-08-21T04:41:09;15.70;99.90
34099;DHT22;20374;49.474;10.944;2022-08-21T04:43:35;15.60;99.90
34099;DHT22;20374;49.474;10.944;2022-08-21T04:46:01;15.50;99.90
34099;DHT22;20374;49.474;10.944;2022-08-21T04:48:27;15.50;99.90
34099;DHT22;20374;49.474;10.944;2022-08-21T04:51:05;15.50;99.90
34099;DHT22;20374;49.474;10.944;2022-08-21T04:53:54;15.50;99.90
34099;DHT22;20374;49.474;10.944;2022-08-21T04:56:24;15.40;99.90
34099;DHT22;20374;49.474;10.944;2022-08-21T04:58:52;15.40;99.90
34099;DHT22;20374;49.474;10.944;2022-08-21T05:01:22;15.50;99.90
34099;DHT22;20374;49.474;10.944;2022-08-21T05:03:52;15.50;99.90
34099;DHT22;20374;49.474;10.944;2022-08-21T05:06:21;15.60;99.90
34099;DHT22;20374;49.474;10.944;2022-08-21T05:08:49;15.60;99.90
34099;DHT22;20374;49.474;10.944;2022-08-21T05:11:16;15.70;99.90
34099;DHT22;20374;49.474;10.944;2022-08-21T05:13:42;15.80;99.90
34099;DHT22;20374;49.474;10.944;2022-08-21T05:16:08;15.80;99.90
34099;DHT22;20374;49.474;10.944;2022-08-21T05:18:34;15.80;99.90
34099;DHT22;20374;49.474;10.944;2022-08-21T05:21:00;15.80;99.90
34099;DHT22;20374;49.474;10.944;2022-08-21T05:23:26;15.80;99.90
34099;DHT22;20374;49.474;10.944;2022-08-21T05:25:53;15.80;99.90
34099;DHT22;20374;49.474;10.944;2022-08-21T05:28:19;15.80;99.90
34099;DHT22;20374;49.474;10.944;2022-08-21T05:30:45;15.80;99.90
34099;DHT22;20374;49.474;10.944;2022-08-21T05:33:11;15.80;99.90
34099;DHT22;20374;49.474;10.944;2022-08-21T05:35:38;15.90;99.90
34099;DHT22;20374;49.474;10.944;2022-08-21T05:38:05;16.00;99.90
34099;DHT22;20374;49.474;10.944;2022-08-21T05:40:32;16.00;99.90
34099;DHT22;20374;49.474;10.944;2022-08-21T05:42:58;15.90;99.90
34099;DHT22;20374;49.474;10.944;2022-08-21T05:45:30;15.80;99.90
34099;DHT22;20374;49.474;10.944;2022-08-21T05:47:57;15.90;99.90
34099;DHT22;20374;49.474;10.944;2022-08-21T05:50:23;15.80;99.90
34099;DHT22;20374;49.474;10.944;2022-08-21T05:52:49;15.80;99.90
34099;DHT22;20374;49.474;10.944;2022-08-21T05:55:15;15.80;99.90
34099;DHT22;20374;49.474;10.944;2022-08-21T05:57:42;15.90;99.90
34099;DHT22;20374;49.474;10.944;2022-08-21T06:00:09;16.00;99.90
34099;DHT22;20374;49.474;10.944;2022-08-21T06:02:39;15.90;99.90
34099;DHT22;20374;49.474;10.944;2022-08-21T06:05:06;16.00;99.90
34099;DHT22;20374;49.474;10.944;2022-08-21T06:07:32;16.10;99.90
34099;DHT22;20374;49.474;10.944;2022-08-21T06:09:58;16.10;99.90
34099;DHT22;20374;49.474;10.944;2022-08-21T06:12:24;16.20;99.90
34099;DHT22;20374;49.474;10.944;2022-08-21T06:14:51;16.20;99.90
34099;DHT22;20374;49.474;10.944;2022-08-21T06:17:18;16.30;99.90
34099;DHT22;20374;49.474;10.944;2022-08-21T06:19:44;16.30;99.90
34099;DHT22;20374;49.474;10.944;2022-08-21T06:22:10;16.40;99.90
34099;DHT22;20374;49.474;10.944;2022-08-21T06:24:36;16.40;99.90
34099;DHT22;20374;49.474;10.944;2022-08-21T06:27:06;16.30;99.90
34099;DHT22;20374;49.474;10.944;2022-08-21T06:29:34;16.40;99.90
34099;DHT22;20374;49.474;10.944;2022-08-21T06:32:00;16.30;99.90
34099;DHT22;20374;49.474;10.944;2022-08-21T06:34:26;16.30;99.90
34099;DHT22;20374;49.474;10.944;2022-08-21T06:36:52;16.30;99.90
34099;DHT22;20374;49.474;10.944;2022-08-21T06:39:18;16.40;99.90
34099;DHT22;20374;49.474;10.944;2022-08-21T06:41:44;16.50;99.90
34099;DHT22;20374;49.474;10.944;2022-08-21T06:44:09;16.50;99.90
34099;DHT22;20374;49.474;10.944;2022-08-21T06:46:35;16.40;99.90
34099;DHT22;20374;49.474;10.944;2022-08-21T06:49:02;16.30;99.90
34099;DHT22;20374;49.474;10.944;2022-08-21T06:51:29;16.30;99.90
34099;DHT22;20374;49.474;10.944;2022-08-21T06:53:57;16.30;99.90
34099;DHT22;20374;49.474;10.944;2022-08-21T06:56:23;16.40;99.90
34099;DHT22;20374;49.474;10.944;2022-08-21T06:58:48;16.50;99.90
34099;DHT22;20374;49.474;10.944;2022-08-21T07:01:14;16.40;99.90
34099;DHT22;20374;49.474;10.944;2022-08-21T07:03:42;16.40;99.90
34099;DHT22;20374;49.474;10.944;2022-08-21T07:06:10;16.30;99.90
34099;DHT22;20374;49.474;10.944;2022-08-21T07:08:38;16.30;99.90
34099;DHT22;20374;49.474;10.944;2022-08-21T07:11:13;16.40;99.90
34099;DHT22;20374;49.474;10.944;2022-08-21T07:13:40;16.50;99.90
34099;DHT22;20374;49.474;10.944;2022-08-21T07:16:06;16.60;99.90
34099;DHT22;20374;49.474;10.944;2022-08-21T07:18:33;16.60;99.90
34099;DHT22;20374;49.474;10.944;2022-08-21T07:21:01;16.60;99.90
34099;DHT22;20374;49.474;10.944;2022-08-21T07:23:33;16.70;99.90
34099;DHT22;20374;49.474;10.944;2022-08-21T07:25:59;16.80;99.90
34099;DHT22;20374;49.474;10.944;2022-08-21T07:28:26;16.80;99.90
34099;DHT22;20374;49.474;10.944;2022-08-21T07:30:55;16.90;99.90
34099;DHT22;20374;49.474;10.944;2022-08-21T07:33:22;17.00;99.90
34099;DHT22;20374;49.474;10.944;2022-08-21T07:35:48;16.90;99.90
34099;DHT22;20374;49.474;10.944;2022-08-21T07:38:14;16.90;99.90
34099;DHT22;20374;49.474;10.944;2022-08-21T07:40:40;16.80;99.90
34099;DHT22;20374;49.474;10.944;2022-08-21T07:43:06;16.80;99.90
34099;DHT22;20374;49.474;10.944;2022-08-21T07:45:32;16.90;99.90
34099;DHT22;20374;49.474;10.944;2022-08-21T07:47:58;16.90;99.90
34099;DHT22;20374;49.474;10.944;2022-08-21T07:50:24;17.00;99.90
34099;DHT22;20374;49.474;10.944;2022-08-21T07:52:51;17.10;99.90
34099;DHT22;20374;49.474;10.944;2022-08-21T07:55:20;17.10;99.90
34099;DHT22;20374;49.474;10.944;2022-08-21T07:57:47;17.10;99.90
34099;DHT22;20374;49.474;10.944;2022-08-21T08:00:21;16.90;99.90
34099;DHT22;20374;49.474;10.944;2022-08-21T08:02:49;17.00;99.90
34099;DHT22;20374;49.474;10.944;2022-08-21T08:05:18;17.00;99.90
34099;DHT22;20374;49.474;10.944;2022-08-21T08:07:44;17.00;99.90
34099;DHT22;20374;49.474;10.944;2022-08-21T08:10:11;17.10;99.90
34099;DHT22;20374;49.474;10.944;2022-08-21T08:12:39;17.20;99.90
34099;DHT22;20374;49.474;10.944;2022-08-21T08:15:07;17.10;99.90
34099;DHT22;20374;49.474;10.944;2022-08-21T08:17:33;17.10;99.90
34099;DHT22;20374;49.474;10.944;2022-08-21T08:20:00;17.10;99.90
34099;DHT22;20374;49.474;10.944;2022-08-21T08:22:28;17.00;99.90
34099;DHT22;20374;49.474;10.944;2022-08-21T08:24:54;17.10;99.90
34099;DHT22;20374;49.474;10.944;2022-08-21T08:27:20;17.20;99.90
34099;DHT22;20374;49.474;10.944;2022-08-21T08:29:47;17.20;99.90
34099;DHT22;20374;49.474;10.944;2022-08-21T08:32:13;17.30;99.90
34099;DHT22;20374;49.474;10.944;2022-08-21T08:34:39;17.40;99.90
34099;DHT22;20374;49.474;10.944;2022-08-21T08:37:07;17.40;99.90
34099;DHT22;20374;49.474;10.944;2022-08-21T08:39:34;17.60;99.90
34099;DHT22;20374;49.474;10.944;2022-08-21T08:42:09;17.60;99.90
34099;DHT22;20374;49.474;10.944;2022-08-21T08:44:37;17.70;99.90
34099;DHT22;20374;49.474;10.944;2022-08-21T08:47:05;17.70;99.90
34099;DHT22;20374;49.474;10.944;2022-08-21T08:49:42;17.80;99.90
34099;DHT22;20374;49.474;10.944;2022-08-21T08:52:35;17.90;99.90
34099;DHT22;20374;49.474;10.944;2022-08-21T08:55:14;18.00;99.90
34099;DHT22;20374;49.474;10.944;2022-08-21T08:57:46;18.10;99.90
34099;DHT22;20374;49.474;10.944;2022-08-21T09:00:16;18.20;99.90
34099;DHT22;20374;49.474;10.944;2022-08-21T09:02:45;18.40;99.90
34099;DHT22;20374;49.474;10.944;2022-08-21T09:05:22;18.60;99.90
34099;DHT22;20374;49.474;10.944;2022-08-21T09:08:15;18.70;99.90
34099;DHT22;20374;49.474;10.944;2022-08-21T09:19:11;19.00;99.90
34099;DHT22;20374;49.474;10.944;2022-08-21T09:24:22;19.20;99.90
34099;DHT22;20374;49.474;10.944;2022-08-21T09:27:10;19.30;99.90
34099;DHT22;20374;49.474;10.944;2022-08-21T09:29:39;19.50;99.90
34099;DHT22;20374;49.474;10.944;2022-08-21T09:32:18;19.60;99.90
34099;DHT22;20374;49.474;10.944;2022-08-21T09:37:27;19.90;99.90
34099;DHT22;20374;49.474;10.944;2022-08-21T09:39:55;20.00;99.90
34099;DHT22;20374;49.474;10.944;2022-08-21T09:42:28;20.20;99.90
34099;DHT22;20374;49.474;10.944;2022-08-21T09:45:17;20.50;99.90
34099;DHT22;20374;49.474;10.944;2022-08-21T09:47:43;20.50;99.90
34099;DHT22;20374;49.474;10.944;2022-08-21T09:50:17;20.70;99.90
34099;DHT22;20374;49.474;10.944;2022-08-21T09:53:01;20.80;99.90
34099;DHT22;20374;49.474;10.944;2022-08-21T09:56:04;20.90;99.90
34099;DHT22;20374;49.474;10.944;2022-08-21T09:58:50;20.70;99.90
34099;DHT22;20374;49.474;10.944;2022-08-21T10:01:25;20.60;99.90
34099;DHT22;20374;49.474;10.944;2022-08-21T10:04:33;20.50;99.90
34099;DHT22;20374;49.474;10.944;2022-08-21T10:07:10;20.40;99.90
34099;DHT22;20374;49.474;10.944;2022-08-21T10:09:37;20.40;99.90
34099;DHT22;20374;49.474;10.944;2022-08-21T10:12:26;20.40;99.90
34099;DHT22;20374;49.474;10.944;2022-08-21T10:15:18;20.40;99.90
34099;DHT22;20374;49.474;10.944;2022-08-21T10:17:59;20.40;99.90
34099;DHT22;20374;49.474;10.944;2022-08-21T10:23:57;20.60;99.90
34099;DHT22;20374;49.474;10.944;2022-08-21T10:32:45;20.60;99.90
34099;DHT22;20374;49.474;10.944;2022-08-21T10:35:26;20.70;99.90
34099;DHT22;20374;49.474;10.944;2022-08-21T10:52:18;21.20;99.90
34099;DHT22;20374;49.474;10.944;2022-08-21T10:55:02;21.20;99.90
34099;DHT22;20374;49.474;10.944;2022-08-21T11:00:12;21.40;99.90
34099;DHT22;20374;49.474;10.944;2022-08-21T11:03:16;21.30;99.90
34099;DHT22;20374;49.474;10.944;2022-08-21T11:06:02;21.40;99.90
34099;DHT22;20374;49.474;10.944;2022-08-21T11:08:44;21.50;99.90
34099;DHT22;20374;49.474;10.944;2022-08-21T11:11:54;21.60;99.90
34099;DHT22;20374;49.474;10.944;2022-08-21T11:14:08;21.70;99.90
34099;DHT22;20374;49.474;10.944;2022-08-21T11:17:02;21.70;99.90
34099;DHT22;20374;49.474;10.944;2022-08-21T11:19:35;21.70;99.90
34099;DHT22;20374;49.474;10.944;2022-08-21T11:25:06;22.00;99.90
34099;DHT22;20374;49.474;10.944;2022-08-21T11:27:38;22.10;99.90
34099;DHT22;20374;49.474;10.944;2022-08-21T11:30:07;22.20;99.90
34099;DHT22;20374;49.474;10.944;2022-08-21T11:38:41;22.10;99.90
34099;DHT22;20374;49.474;10.944;2022-08-21T11:43:45;22.30;99.90
34099;DHT22;20374;49.474;10.944;2022-08-21T11:52:13;22.60;99.90
34099;DHT22;20374;49.474;10.944;2022-08-21T11:57:44;22.50;99.90
34099;DHT22;20374;49.474;10.944;2022-08-21T12:00:33;22.40;99.90
34099;DHT22;20374;49.474;10.944;2022-08-21T12:03:28;22.20;99.90
34099;DHT22;20374;49.474;10.944;2022-08-21T12:06:01;22.20;99.90
34099;DHT22;20374;49.474;10.944;2022-08-21T12:11:09;22.40;99.90
34099;DHT22;20374;49.474;10.944;2022-08-21T12:14:35;22.50;99.90
34099;DHT22;20374;49.474;10.944;2022-08-21T12:16:43;22.60;99.90
34099;DHT22;20374;49.474;10.944;2022-08-21T12:19:29;22.50;99.90
34099;DHT22;20374;49.474;10.944;2022-08-21T12:29:35;23.00;99.90
34099;DHT22;20374;49.474;10.944;2022-08-21T12:34:38;23.40;99.90
34099;DHT22;20374;49.474;10.944;2022-08-21T12:37:22;23.50;99.90
34099;DHT22;20374;49.474;10.944;2022-08-21T12:39:52;23.60;99.90
34099;DHT22;20374;49.474;10.944;2022-08-21T12:42:28;23.60;99.90
34099;DHT22;20374;49.474;10.944;2022-08-21T12:45:02;23.50;99.90
34099;DHT22;20374;49.474;10.944;2022-08-21T12:47:51;23.40;99.90
34099;DHT22;20374;49.474;10.944;2022-08-21T12:50:37;23.30;99.90
34099;DHT22;20374;49.474;10.944;2022-08-21T12:55:54;23.10;99.80
34099;DHT22;20374;49.474;10.944;2022-08-21T12:58:25;23.10;99.90
34099;DHT22;20374;49.474;10.944;2022-08-21T13:01:52;23.10;99.90
34099;DHT22;20374;49.474;10.944;2022-08-21T13:04:10;23.10;99.90
34099;DHT22;20374;49.474;10.944;2022-08-21T13:06:41;23.40;98.90
34099;DHT22;20374;49.474;10.944;2022-08-21T13:09:14;23.50;98.80
34099;DHT22;20374;49.474;10.944;2022-08-21T13:11:45;23.70;99.60
34099;DHT22;20374;49.474;10.944;2022-08-21T13:14:35;23.90;99.30
34099;DHT22;20374;49.474;10.944;2022-08-21T13:17:04;24.00;98.10
34099;DHT22;20374;49.474;10.944;2022-08-21T13:19:32;24.00;99.90
34099;DHT22;20374;49.474;10.944;2022-08-21T13:21:59;24.00;99.90
34099;DHT22;20374;49.474;10.944;2022-08-21T13:24:29;24.00;98.80
34099;DHT22;20374;49.474;10.944;2022-08-21T13:26:56;23.80;98.30
34099;DHT22;20374;49.474;10.944;2022-08-21T13:29:28;23.50;98.90
34099;DHT22;20374;49.474;10.944;2022-08-21T13:31:56;23.40;99.90
34099;DHT22;20374;49.474;10.944;2022-08-21T13:34:25;23.40;99.90
34099;DHT22;20374;49.474;10.944;2022-08-21T13:36:58;23.30;99.90
34099;DHT22;20374;49.474;10.944;2022-08-21T13:39:25;23.40;99.90
34099;DHT22;20374;49.474;10.944;2022-08-21T13:41:57;23.60;98.40
34099;DHT22;20374;49.474;10.944;2022-08-21T13:44:36;23.70;96.90
34099;DHT22;20374;49.474;10.944;2022-08-21T13:47:04;23.80;97.30
34099;DHT22;20374;49.474;10.944;2022-08-21T13:49:39;23.90;97.10
34099;DHT22;20374;49.474;10.944;2022-08-21T13:52:22;23.90;96.00
34099;DHT22;20374;49.474;10.944;2022-08-21T13:54:57;23.80;96.40
34099;DHT22;20374;49.474;10.944;2022-08-21T13:57:28;23.80;96.30
34099;DHT22;20374;49.474;10.944;2022-08-21T14:00:15;24.00;97.70
34099;DHT22;20374;49.474;10.944;2022-08-21T14:02:44;24.10;97.50
34099;DHT22;20374;49.474;10.944;2022-08-21T14:05:27;24.00;99.10
34099;DHT22;20374;49.474;10.944;2022-08-21T14:08:15;24.00;99.30
34099;DHT22;20374;49.474;10.944;2022-08-21T14:10:49;24.10;96.00
34099;DHT22;20374;49.474;10.944;2022-08-21T14:13:44;24.30;97.40
34099;DHT22;20374;49.474;10.944;2022-08-21T14:21:34;24.80;95.00
34099;DHT22;20374;49.474;10.944;2022-08-21T14:24:24;24.90;95.90
34099;DHT22;20374;49.474;10.944;2022-08-21T14:27:07;25.10;94.10
34099;DHT22;20374;49.474;10.944;2022-08-21T14:29:37;25.20;91.80
34099;DHT22;20374;49.474;10.944;2022-08-21T14:32:18;25.30;91.20
34099;DHT22;20374;49.474;10.944;2022-08-21T14:34:45;25.50;90.90
34099;DHT22;20374;49.474;10.944;2022-08-21T14:37:10;25.50;89.70
34099;DHT22;20374;49.474;10.944;2022-08-21T14:39:36;25.60;91.20
34099;DHT22;20374;49.474;10.944;2022-08-21T14:42:03;25.70;90.20
34099;DHT22;20374;49.474;10.944;2022-08-21T14:44:29;25.90;87.40
34099;DHT22;20374;49.474;10.944;2022-08-21T14:46:55;25.80;88.70
34099;DHT22;20374;49.474;10.944;2022-08-21T14:49:25;25.60;91.50
34099;DHT22;20374;49.474;10.944;2022-08-21T14:51:51;25.60;92.00
34099;DHT22;20374;49.474;10.944;2022-08-21T14:54:26;25.60;92.00
34099;DHT22;20374;49.474;10.944;2022-08-21T14:56:52;25.60;93.40
34099;DHT22;20374;49.474;10.944;2022-08-21T14:59:21;25.50;89.90
34099;DHT22;20374;49.474;10.944;2022-08-21T15:01:47;25.40;92.30
34099;DHT22;20374;49.474;10.944;2022-08-21T15:04:13;25.20;92.00
34099;DHT22;20374;49.474;10.944;2022-08-21T15:06:39;25.20;91.00
34099;DHT22;20374;49.474;10.944;2022-08-21T15:09:05;25.10;90.30
34099;DHT22;20374;49.474;10.944;2022-08-21T15:11:32;25.10;91.70
34099;DHT22;20374;49.474;10.944;2022-08-21T15:14:01;25.20;89.90
34099;DHT22;20374;49.474;10.944;2022-08-21T15:16:29;25.20;90.60
34099;DHT22;20374;49.474;10.944;2022-08-21T15:18:57;25.20;90.40
34099;DHT22;20374;49.474;10.944;2022-08-21T15:21:22;25.20;89.30
34099;DHT22;20374;49.474;10.944;2022-08-21T15:23:48;25.20;86.20
34099;DHT22;20374;49.474;10.944;2022-08-21T15:26:14;25.10;85.70
34099;DHT22;20374;49.474;10.944;2022-08-21T15:28:40;25.00;89.00
34099;DHT22;20374;49.474;10.944;2022-08-21T15:31:07;25.10;86.90
34099;DHT22;20374;49.474;10.944;2022-08-21T15:33:33;25.10;86.40
34099;DHT22;20374;49.474;10.944;2022-08-21T15:35:59;25.10;88.70
34099;DHT22;20374;49.474;10.944;2022-08-21T15:38:25;25.00;89.70
34099;DHT22;20374;49.474;10.944;2022-08-21T15:40:51;24.90;90.10
34099;DHT22;20374;49.474;10.944;2022-08-21T15:45:47;24.90;87.60
34099;DHT22;20374;49.474;10.944;2022-08-21T15:48:13;24.90;85.70
34099;DHT22;20374;49.474;10.944;2022-08-21T15:50:39;24.90;82.50
34099;DHT22;20374;49.474;10.944;2022-08-21T15:53:04;24.80;87.30
34099;DHT22;20374;49.474;10.944;2022-08-21T15:55:33;24.80;84.80
34099;DHT22;20374;49.474;10.944;2022-08-21T15:57:59;24.80;91.20
34099;DHT22;20374;49.474;10.944;2022-08-21T16:00:26;24.80;83.50
34099;DHT22;20374;49.474;10.944;2022-08-21T16:02:57;24.80;84.20
34099;DHT22;20374;49.474;10.944;2022-08-21T16:05:23;24.80;83.80
34099;DHT22;20374;49.474;10.944;2022-08-21T16:07:50;24.80;82.70
34099;DHT22;20374;49.474;10.944;2022-08-21T16:10:19;24.90;83.60
34099;DHT22;20374;49.474;10.944;2022-08-21T16:12:51;24.90;83.90
34099;DHT22;20374;49.474;10.944;2022-08-21T16:15:19;24.90;81.90
34099;DHT22;20374;49.474;10.944;2022-08-21T16:17:46;24.80;81.80
34099;DHT22;20374;49.474;10.944;2022-08-21T16:20:18;24.70;81.50
34099;DHT22;20374;49.474;10.944;2022-08-21T16:22:45;24.70;84.10
34099;DHT22;20374;49.474;10.944;2022-08-21T16:25:13;24.70;82.00
34099;DHT22;20374;49.474;10.944;2022-08-21T16:27:41;24.70;82.80
34099;DHT22;20374;49.474;10.944;2022-08-21T16:30:08;24.70;82.00
34099;DHT22;20374;49.474;10.944;2022-08-21T16:32:34;24.70;82.00
34099;DHT22;20374;49.474;10.944;2022-08-21T16:35:01;24.70;81.10
34099;DHT22;20374;49.474;10.944;2022-08-21T16:37:28;24.70;81.30
34099;DHT22;20374;49.474;10.944;2022-08-21T16:39:54;24.60;81.10
34099;DHT22;20374;49.474;10.944;2022-08-21T16:42:23;24.60;80.50
34099;DHT22;20374;49.474;10.944;2022-08-21T16:44:52;24.60;79.80
34099;DHT22;20374;49.474;10.944;2022-08-21T16:47:18;24.60;80.90
34099;DHT22;20374;49.474;10.944;2022-08-21T16:49:44;24.60;80.40
34099;DHT22;20374;49.474;10.944;2022-08-21T16:52:11;24.50;83.30
34099;DHT22;20374;49.474;10.944;2022-08-21T16:54:37;24.50;90.20
34099;DHT22;20374;49.474;10.944;2022-08-21T16:57:03;24.30;86.30